createdAt,value
2022-12-17T00:02:46.402Z,30.52
2022-12-17T00:05:34.684Z,31.25
2022-12-17T00:08:21.425Z,33.67
2022-12-17T00:11:08.109Z,36.65
2022-12-17T00:13:55.082Z,33.58
2022-12-17T00:16:41.942Z,32.50
2022-12-17T00:19:29.161Z,33.80
2022-12-17T00:22:17.030Z,34.40
2022-12-17T00:25:04.449Z,37.47
2022-12-17T00:27:51.621Z,34.58
2022-12-17T00:30:39.317Z,37.25
2022-12-17T00:33:25.822Z,33.88
2022-12-17T00:36:24.585Z,37.83
2022-12-17T00:39:12.499Z,32.88
2022-12-17T00:41:59.862Z,32.75
2022-12-17T00:44:46.619Z,30.92
2022-12-17T00:47:33.554Z,29.05
2022-12-17T00:50:19.612Z,30.42
2022-12-17T00:53:07.121Z,30.20
2022-12-17T00:55:54.780Z,30.65
2022-12-17T00:58:43.776Z,31.88
2022-12-17T01:01:30.767Z,30.98
2022-12-17T01:04:18.672Z,31.75
2022-12-17T01:07:01.669Z,31.20
2022-12-17T01:09:50.029Z,36.50
2022-12-17T01:12:38.281Z,32.20
2022-12-17T01:15:25.943Z,30.00
2022-12-17T01:18:12.570Z,31.20
2022-12-17T01:20:59.843Z,30.92
2022-12-17T01:23:46.234Z,31.77
2022-12-17T01:26:33.212Z,30.60
2022-12-17T01:29:21.656Z,32.15
2022-12-17T01:32:08.328Z,31.95
2022-12-17T01:34:55.102Z,34.22
2022-12-17T01:37:42.510Z,34.28
2022-12-17T01:40:30.324Z,32.83
2022-12-17T01:46:08.490Z,28.08
2022-12-17T01:49:00.108Z,28.95
2022-12-17T01:51:48.634Z,30.00
2022-12-17T01:54:38.307Z,29.42
2022-12-17T01:57:37.533Z,31.58
2022-12-17T02:00:27.539Z,24.80
2022-12-17T02:03:17.188Z,29.27
2022-12-17T02:06:20.780Z,25.33
2022-12-17T02:09:15.163Z,26.33
2022-12-17T02:12:10.588Z,23.73
2022-12-17T02:15:03.430Z,22.38
2022-12-17T02:17:55.453Z,22.88
2022-12-17T02:20:48.985Z,21.90
2022-12-17T02:24:13.337Z,23.17
2022-12-17T02:27:30.313Z,21.00
2022-12-17T02:30:29.443Z,22.98
2022-12-17T02:33:16.398Z,26.15
2022-12-17T02:36:22.437Z,21.25
2022-12-17T02:39:09.419Z,20.98
2022-12-17T02:42:03.259Z,22.63
2022-12-17T02:44:54.911Z,25.90
2022-12-17T02:47:43.386Z,27.35
2022-12-17T02:50:37.071Z,25.77
2022-12-17T02:53:24.312Z,25.08
2022-12-17T02:56:10.986Z,26.52
2022-12-17T02:58:58.783Z,25.58
2022-12-17T03:01:47.362Z,26.27
2022-12-17T03:04:34.480Z,23.27
2022-12-17T03:07:20.984Z,26.17
2022-12-17T03:10:07.880Z,29.48
2022-12-17T03:12:59.291Z,26.83
2022-12-17T03:15:46.396Z,24.90
2022-12-17T03:18:34.934Z,29.13
2022-12-17T03:21:21.785Z,26.15
2022-12-17T03:24:08.665Z,27.58
2022-12-17T03:26:55.474Z,26.65
2022-12-17T03:29:42.357Z,27.85
2022-12-17T03:32:29.217Z,27.63
2022-12-17T03:35:17.360Z,29.70
2022-12-17T03:38:04.419Z,30.25
2022-12-17T03:40:51.216Z,26.88
2022-12-17T03:43:38.182Z,26.73
2022-12-17T03:46:25.104Z,25.55
2022-12-17T03:49:12.480Z,26.95
2022-12-17T03:52:00.424Z,30.65
2022-12-17T03:54:47.278Z,29.25
2022-12-17T03:57:33.293Z,28.48
2022-12-17T04:00:20.557Z,30.40
2022-12-17T04:03:07.439Z,30.73
2022-12-17T04:05:54.435Z,28.95
2022-12-17T04:08:57.050Z,30.67
2022-12-17T04:11:43.982Z,31.95
2022-12-17T04:14:30.453Z,29.27
2022-12-17T04:17:17.659Z,28.30
2022-12-17T04:20:04.622Z,32.90
2022-12-17T04:22:51.411Z,29.00
2022-12-17T04:25:39.431Z,31.42
2022-12-17T04:28:26.208Z,30.75
2022-12-17T04:31:13.161Z,29.52
2022-12-17T04:34:00.303Z,33.65
2022-12-17T04:36:47.214Z,31.50
2022-12-17T04:39:33.959Z,29.98
2022-12-17T04:42:21.869Z,30.63
2022-12-17T04:45:09.008Z,30.65
2022-12-17T04:47:56.025Z,30.13
2022-12-17T04:50:42.742Z,30.25
2022-12-17T04:53:30.093Z,31.10
2022-12-17T04:56:17.076Z,34.42
2022-12-17T04:59:05.967Z,33.28
2022-12-17T05:01:53.114Z,30.75
2022-12-17T05:04:39.947Z,31.05
2022-12-17T05:07:26.660Z,31.73
2022-12-17T05:10:13.219Z,34.55
2022-12-17T05:13:00.397Z,37.58
2022-12-17T05:15:53.138Z,32.75
2022-12-17T05:18:40.642Z,34.70
2022-12-17T05:21:31.936Z,35.40
2022-12-17T05:24:20.499Z,37.72
2022-12-17T05:27:07.787Z,34.38
2022-12-17T05:29:54.763Z,34.63
2022-12-17T05:32:43.278Z,32.58
2022-12-17T05:35:30.358Z,34.80
2022-12-17T05:38:22.820Z,34.17
2022-12-17T05:41:10.335Z,36.80
2022-12-17T05:43:57.397Z,33.67
2022-12-17T05:46:46.779Z,36.65
2022-12-17T05:49:34.745Z,39.63
2022-12-17T05:52:21.670Z,42.10
2022-12-17T05:55:08.970Z,39.78
2022-12-17T05:57:56.444Z,39.33
2022-12-17T06:00:43.630Z,42.97
2022-12-17T06:03:30.952Z,40.65
2022-12-17T06:06:19.597Z,40.72
2022-12-17T06:09:06.977Z,43.75
2022-12-17T06:11:57.922Z,45.45
2022-12-17T06:14:48.045Z,43.90
2022-12-17T06:17:34.898Z,35.40
2022-12-17T06:20:22.258Z,38.22
2022-12-17T06:23:28.109Z,39.08
2022-12-17T06:26:15.751Z,35.38
2022-12-17T06:29:03.252Z,33.00
2022-12-17T06:31:50.103Z,32.60
2022-12-17T06:34:36.977Z,30.38
2022-12-17T06:37:24.442Z,30.08
2022-12-17T06:40:12.696Z,32.13
2022-12-17T06:42:59.898Z,29.83
2022-12-17T06:45:46.269Z,28.92
2022-12-17T06:48:33.235Z,24.90
2022-12-17T06:51:28.317Z,29.77
2022-12-17T06:54:15.490Z,28.67
2022-12-17T06:57:03.422Z,24.73
2022-12-17T06:59:50.307Z,20.60
2022-12-17T07:02:37.224Z,21.08
2022-12-17T07:05:27.680Z,21.35
2022-12-17T07:11:04.441Z,24.02
2022-12-17T07:13:52.475Z,22.23
2022-12-17T07:16:39.597Z,22.50
2022-12-17T07:19:27.569Z,22.50
2022-12-17T07:22:15.726Z,17.92
2022-12-17T07:25:02.578Z,19.60
2022-12-17T07:27:50.794Z,19.85
2022-12-17T07:30:38.594Z,19.00
2022-12-17T07:33:26.836Z,17.08
2022-12-17T07:36:14.361Z,21.63
2022-12-17T07:39:01.763Z,17.48
2022-12-17T07:41:48.583Z,19.63
2022-12-17T07:44:35.935Z,19.98
2022-12-17T07:47:24.366Z,15.10
2022-12-17T07:50:11.147Z,16.58
2022-12-17T07:52:57.776Z,18.50
2022-12-17T07:55:44.837Z,15.43
2022-12-17T07:58:31.633Z,15.23
2022-12-17T08:01:20.086Z,15.45
2022-12-17T08:04:08.366Z,13.63
2022-12-17T08:07:01.679Z,14.15
2022-12-17T08:09:51.179Z,14.18
2022-12-17T08:12:38.456Z,13.93
2022-12-17T08:15:26.010Z,16.05
2022-12-17T08:18:22.943Z,12.45
2022-12-17T08:21:14.612Z,14.18
2022-12-17T08:24:01.586Z,14.85
2022-12-17T08:26:49.737Z,15.60
2022-12-17T08:29:36.654Z,12.63
2022-12-17T08:32:23.590Z,13.93
2022-12-17T08:35:10.623Z,13.40
2022-12-17T08:37:59.730Z,13.38
2022-12-17T08:40:47.186Z,15.75
2022-12-17T08:43:34.767Z,14.85
2022-12-17T08:46:21.898Z,18.33
2022-12-17T08:49:09.013Z,13.73
2022-12-17T08:51:56.272Z,14.70
2022-12-17T08:54:44.310Z,14.90
2022-12-17T08:57:32.329Z,14.25
2022-12-17T09:00:19.899Z,16.38
2022-12-17T09:03:14.784Z,14.82
2022-12-17T09:06:02.192Z,14.32
2022-12-17T09:08:49.396Z,11.98
2022-12-17T09:11:37.654Z,14.93
2022-12-17T09:14:24.551Z,14.50
2022-12-17T09:17:11.084Z,14.13
2022-12-17T09:19:58.301Z,17.75
2022-12-17T09:22:45.248Z,14.40
2022-12-17T09:25:32.401Z,15.40
2022-12-17T09:28:22.538Z,16.65
2022-12-17T09:31:09.511Z,17.70
2022-12-17T09:33:56.164Z,15.52
2022-12-17T09:36:49.559Z,16.63
2022-12-17T09:39:38.178Z,16.85
2022-12-17T09:42:35.269Z,17.85
2022-12-17T09:45:32.108Z,18.73
2022-12-17T09:48:29.495Z,18.02
2022-12-17T09:54:08.315Z,15.57
2022-12-17T09:56:53.450Z,16.55
2022-12-17T09:59:53.461Z,16.40
2022-12-17T10:02:44.269Z,19.70
2022-12-17T10:05:38.646Z,19.00
2022-12-17T10:08:26.120Z,25.90
2022-12-17T10:11:13.465Z,24.33
2022-12-17T10:14:00.333Z,27.42
2022-12-17T10:16:50.331Z,27.73
2022-12-17T10:19:47.254Z,27.85
2022-12-17T10:22:39.166Z,24.83
2022-12-17T10:25:33.061Z,24.95
2022-12-17T10:28:21.486Z,21.73
2022-12-17T10:31:08.497Z,23.48
2022-12-17T10:33:57.870Z,23.23
2022-12-17T10:36:47.771Z,20.02
2022-12-17T10:39:38.626Z,20.83
2022-12-17T10:42:40.607Z,24.95
2022-12-17T10:45:42.213Z,23.85
2022-12-17T10:48:41.626Z,22.73
2022-12-17T10:51:39.759Z,21.42
2022-12-17T10:54:46.963Z,27.05
2022-12-17T10:57:45.737Z,25.33
2022-12-17T11:00:49.473Z,25.45
2022-12-17T11:03:50.603Z,23.95
2022-12-17T11:10:02.395Z,23.23
2022-12-17T11:12:58.740Z,26.88
2022-12-17T11:15:51.159Z,26.10
2022-12-17T11:18:43.266Z,25.85
2022-12-17T11:21:38.161Z,25.15
2022-12-17T11:24:30.637Z,23.30
2022-12-17T11:27:22.929Z,29.00
2022-12-17T11:30:12.344Z,25.73
2022-12-17T11:33:19.038Z,24.52
2022-12-17T11:36:14.239Z,21.40
2022-12-17T11:39:09.692Z,25.73
2022-12-17T11:42:11.393Z,24.98
2022-12-17T11:45:10.090Z,23.15
2022-12-17T11:48:04.516Z,24.80
2022-12-17T11:50:59.408Z,29.42
2022-12-17T11:54:03.998Z,27.25
2022-12-17T11:56:56.647Z,26.67
2022-12-17T11:59:53.489Z,26.45
2022-12-17T12:03:03.978Z,28.05
2022-12-17T12:06:00.724Z,27.88
2022-12-17T12:08:49.639Z,26.42
2022-12-17T12:11:46.685Z,28.65
2022-12-17T12:14:47.424Z,28.08
2022-12-17T12:17:59.924Z,30.23
2022-12-17T12:21:03.769Z,28.83
2022-12-17T12:24:03.150Z,28.42
2022-12-17T12:26:56.646Z,31.83
2022-12-17T12:29:52.109Z,26.10
2022-12-17T12:32:51.570Z,30.73
2022-12-17T12:35:43.035Z,30.42
2022-12-17T12:38:41.717Z,30.73
2022-12-17T12:41:39.966Z,28.70
2022-12-17T12:44:40.510Z,30.17
2022-12-17T12:47:42.795Z,30.02
2022-12-17T12:50:38.454Z,35.03
2022-12-17T12:53:30.469Z,30.38
2022-12-17T12:56:17.512Z,32.97
2022-12-17T12:59:04.242Z,30.77
2022-12-17T13:01:54.097Z,23.52
2022-12-17T13:04:50.709Z,28.65
2022-12-17T13:07:24.846Z,36.08
2022-12-17T13:09:57.653Z,30.40
2022-12-17T13:12:34.491Z,29.15
2022-12-17T13:15:21.958Z,32.65
2022-12-17T13:18:03.282Z,33.10
2022-12-17T13:20:34.774Z,32.35
2022-12-17T13:23:17.915Z,30.92
2022-12-17T13:25:48.676Z,34.35
2022-12-17T13:28:32.064Z,38.33
2022-12-17T13:31:06.123Z,34.55
2022-12-17T13:33:47.236Z,28.73
2022-12-17T13:36:25.074Z,40.67
2022-12-17T13:39:01.354Z,39.95
2022-12-17T13:41:34.058Z,34.42
2022-12-17T13:44:18.357Z,37.22
2022-12-17T13:46:49.302Z,37.55
2022-12-17T13:49:21.466Z,36.55
2022-12-17T13:52:03.294Z,35.28
2022-12-17T13:54:36.306Z,37.67
2022-12-17T13:57:11.661Z,28.17
2022-12-17T13:59:41.587Z,32.10
2022-12-17T14:02:25.783Z,26.75
2022-12-17T14:04:57.738Z,29.73
2022-12-17T14:07:30.075Z,33.78
2022-12-17T14:09:59.801Z,34.70
2022-12-17T14:12:30.086Z,35.95
2022-12-17T14:15:01.709Z,34.50
2022-12-17T14:17:42.028Z,32.97
2022-12-17T14:20:16.034Z,35.97
2022-12-17T14:22:51.598Z,34.05
2022-12-17T14:25:23.857Z,29.30
2022-12-17T14:27:57.837Z,33.38
2022-12-17T14:30:46.184Z,26.02
2022-12-17T14:33:31.844Z,32.10
2022-12-17T14:36:05.026Z,32.90
2022-12-17T14:38:38.992Z,32.63
2022-12-17T14:41:27.928Z,31.25
2022-12-17T14:44:00.612Z,35.33
2022-12-17T14:46:31.749Z,33.10
2022-12-17T14:49:03.554Z,37.50
2022-12-17T14:51:36.273Z,35.78
2022-12-17T14:54:20.875Z,30.55
2022-12-17T14:56:51.610Z,28.92
2022-12-17T14:59:33.451Z,28.17
2022-12-17T15:02:06.392Z,38.40
2022-12-17T15:04:37.404Z,39.22
2022-12-17T15:07:12.075Z,30.90
2022-12-17T15:09:45.676Z,38.72
2022-12-17T15:12:15.139Z,39.10
2022-12-17T15:14:46.613Z,32.50
2022-12-17T15:17:16.999Z,36.13
2022-12-17T15:22:18.670Z,38.05
2022-12-17T15:24:49.399Z,26.60
2022-12-17T15:29:49.289Z,30.98
2022-12-17T15:32:21.119Z,33.33
2022-12-17T15:34:51.621Z,26.58
2022-12-17T15:37:25.483Z,32.05
2022-12-17T15:39:56.335Z,29.35
2022-12-17T15:42:43.650Z,33.75
2022-12-17T15:45:14.452Z,34.67
2022-12-17T15:47:44.951Z,31.73
2022-12-17T15:50:15.493Z,30.88
2022-12-17T15:52:44.959Z,31.75
2022-12-17T15:55:14.490Z,29.58
2022-12-17T15:57:44.473Z,26.48
2022-12-17T16:00:16.484Z,20.60
2022-12-17T16:02:48.518Z,27.75
2022-12-17T16:05:20.890Z,26.02
2022-12-17T16:07:51.621Z,23.17
2022-12-17T16:10:21.962Z,26.75
2022-12-17T16:12:51.457Z,29.73
2022-12-17T16:15:22.173Z,27.20
2022-12-17T16:17:51.787Z,26.13
2022-12-17T16:20:23.432Z,27.85
2022-12-17T16:22:55.169Z,29.65
2022-12-17T16:25:25.710Z,27.25
2022-12-17T16:27:55.170Z,26.33
2022-12-17T16:30:26.069Z,26.85
2022-12-17T16:32:58.755Z,27.15
2022-12-17T16:35:29.073Z,21.85
2022-12-17T16:37:58.560Z,20.23
2022-12-17T16:40:28.245Z,25.27
2022-12-17T16:42:58.271Z,21.85
2022-12-17T16:45:28.827Z,20.55
2022-12-17T16:47:59.086Z,44.50
2022-12-17T16:50:30.576Z,29.35
2022-12-17T16:53:00.274Z,34.00
2022-12-17T16:55:31.463Z,28.95
2022-12-17T16:58:02.462Z,32.70
2022-12-17T17:00:33.235Z,28.55
2022-12-17T17:03:03.037Z,40.03
2022-12-17T17:05:34.141Z,41.35
2022-12-17T17:08:06.755Z,30.20
2022-12-17T17:10:38.082Z,28.42
2022-12-17T17:13:07.831Z,28.80
2022-12-17T17:15:38.461Z,26.00
2022-12-17T17:18:08.157Z,30.63
2022-12-17T17:20:37.382Z,32.83
2022-12-17T17:23:06.937Z,32.25
2022-12-17T17:25:57.817Z,32.17
2022-12-17T17:28:27.525Z,23.95
2022-12-17T17:31:02.285Z,31.75
2022-12-17T17:33:32.922Z,30.65
2022-12-17T17:36:05.891Z,27.55
2022-12-17T17:38:36.303Z,31.67
2022-12-17T17:41:06.880Z,31.00
2022-12-17T17:43:36.466Z,31.67
2022-12-17T17:46:13.033Z,33.05
2022-12-17T17:48:43.726Z,32.38
2022-12-17T17:51:16.139Z,35.28
2022-12-17T17:53:46.135Z,33.15
2022-12-17T17:56:17.140Z,32.20
2022-12-17T17:58:48.990Z,33.17
2022-12-17T18:01:23.024Z,29.48
2022-12-17T18:03:54.136Z,29.25
2022-12-17T18:06:23.840Z,33.55
2022-12-17T18:08:53.669Z,26.13
2022-12-17T18:11:24.314Z,28.50
2022-12-17T18:13:55.697Z,31.52
2022-12-17T18:16:31.459Z,28.10
2022-12-17T18:19:02.981Z,27.67
2022-12-17T18:21:33.052Z,30.85
2022-12-17T18:24:05.238Z,31.17
2022-12-17T18:26:38.023Z,31.77
2022-12-17T18:29:11.237Z,29.88
2022-12-17T18:31:44.852Z,34.08
2022-12-17T18:34:21.157Z,46.50
2022-12-17T18:36:51.559Z,32.55
2022-12-17T18:39:23.503Z,34.15
2022-12-17T18:42:10.837Z,29.75
2022-12-17T18:44:43.006Z,28.10
2022-12-17T18:47:13.957Z,31.15
2022-12-17T18:49:43.866Z,34.92
2022-12-17T18:52:17.078Z,28.98
2022-12-17T18:54:47.295Z,29.52
2022-12-17T18:57:16.840Z,34.25
2022-12-17T18:59:46.447Z,30.92
2022-12-17T19:02:17.545Z,33.72
2022-12-17T19:04:47.262Z,33.08
2022-12-17T19:07:16.737Z,35.75
2022-12-17T19:09:46.332Z,32.25
2022-12-17T19:12:16.537Z,32.60
2022-12-17T19:14:46.170Z,32.42
2022-12-17T19:17:16.928Z,33.90
2022-12-17T19:19:46.860Z,35.53
2022-12-17T19:22:16.246Z,30.60
2022-12-17T19:27:15.065Z,28.70
2022-12-17T19:29:49.127Z,32.90
2022-12-17T19:32:20.592Z,37.53
2022-12-17T19:34:50.138Z,37.90
2022-12-17T19:37:20.073Z,35.10
2022-12-17T19:39:49.847Z,32.45
2022-12-17T19:42:36.726Z,32.45
2022-12-17T19:45:08.981Z,33.28
2022-12-17T19:47:40.673Z,39.70
2022-12-17T19:50:13.870Z,37.88
2022-12-17T19:52:45.544Z,32.38
2022-12-17T19:55:16.461Z,35.38
2022-12-17T19:57:46.768Z,39.33
2022-12-17T20:00:17.330Z,43.60
2022-12-17T20:02:49.211Z,41.50
2022-12-17T20:05:22.005Z,38.45
2022-12-17T20:07:51.369Z,34.70
2022-12-17T20:10:21.067Z,39.95
2022-12-17T20:12:50.871Z,39.83
2022-12-17T20:15:20.535Z,39.80
2022-12-17T20:17:51.585Z,46.30
2022-12-17T20:20:22.647Z,38.88
2022-12-17T20:22:53.021Z,42.63
2022-12-17T20:25:22.591Z,36.10
2022-12-17T20:27:51.866Z,36.13
2022-12-17T20:30:21.760Z,34.25
2022-12-17T20:32:55.263Z,33.45
2022-12-17T20:35:24.918Z,34.58
2022-12-17T20:37:54.145Z,36.72
2022-12-17T20:40:24.805Z,36.60
2022-12-17T20:45:23.443Z,33.28
2022-12-17T20:47:55.062Z,32.88
2022-12-17T20:50:25.393Z,33.63
2022-12-17T20:52:54.628Z,34.78
2022-12-17T20:55:30.918Z,32.08
2022-12-17T20:58:00.637Z,30.23
2022-12-17T21:00:30.319Z,34.08
2022-12-17T21:03:01.188Z,34.25
2022-12-17T21:05:31.270Z,35.10
2022-12-17T21:08:00.614Z,38.40
2022-12-17T21:10:30.695Z,39.63
2022-12-17T21:13:18.595Z,43.85
2022-12-17T21:15:51.700Z,39.78
2022-12-17T21:18:22.663Z,41.07
2022-12-17T21:20:58.044Z,39.20
2022-12-17T21:23:28.565Z,34.83
2022-12-17T21:26:03.595Z,40.05
2022-12-17T21:31:15.671Z,35.72
2022-12-17T21:33:47.071Z,41.97
2022-12-17T21:36:22.767Z,42.40
2022-12-17T21:38:53.596Z,47.35
2022-12-17T21:41:25.448Z,50.17
2022-12-17T21:43:55.452Z,51.93
2022-12-17T21:46:27.600Z,44.60
2022-12-17T21:49:00.049Z,38.10
2022-12-17T21:51:32.635Z,38.63
2022-12-17T21:54:08.759Z,43.30
2022-12-17T21:56:39.389Z,41.80
2022-12-17T21:59:08.588Z,40.92
2022-12-17T22:04:09.076Z,30.53
2022-12-17T22:06:40.719Z,32.10
2022-12-17T22:09:31.561Z,51.97
2022-12-17T22:12:17.290Z,47.70
2022-12-17T22:14:47.974Z,40.27
2022-12-17T22:17:17.587Z,37.97
2022-12-17T22:19:48.282Z,34.28
2022-12-17T22:22:17.876Z,31.00
2022-12-17T22:24:47.093Z,30.10
2022-12-17T22:27:16.765Z,33.28
2022-12-17T22:30:04.280Z,39.35
2022-12-17T22:32:52.084Z,43.07
2022-12-17T22:36:55.656Z,32.83
2022-12-17T22:40:47.333Z,26.33
2022-12-17T22:44:31.383Z,24.67
2022-12-17T22:44:49.753Z,26.13
2022-12-17T22:46:51.347Z,26.33
2022-12-17T22:49:21.529Z,31.92
2022-12-17T22:51:52.187Z,34.40
2022-12-17T22:54:21.834Z,35.00
2022-12-17T22:57:36.229Z,30.10
2022-12-17T22:59:41.351Z,32.42
2022-12-17T23:02:11.294Z,27.65
2022-12-17T23:04:41.026Z,29.40
2022-12-17T23:07:11.772Z,34.65
2022-12-17T23:09:41.474Z,32.77
2022-12-17T23:12:24.463Z,40.85
2022-12-17T23:14:54.069Z,36.97
2022-12-17T23:17:23.222Z,37.88
2022-12-17T23:19:52.798Z,43.00
2022-12-17T23:22:23.411Z,33.92
2022-12-17T23:24:53.018Z,34.33
2022-12-17T23:27:22.198Z,39.15
2022-12-17T23:29:52.016Z,34.83
2022-12-17T23:32:21.476Z,31.60
2022-12-17T23:34:50.982Z,30.35
2022-12-17T23:37:20.186Z,29.55
2022-12-17T23:39:51.041Z,33.42
2022-12-17T23:42:20.397Z,31.23
2022-12-17T23:44:50.092Z,35.15
2022-12-17T23:49:49.493Z,29.47
2022-12-17T23:52:18.775Z,29.17
2022-12-17T23:54:49.745Z,31.10
2022-12-17T23:57:19.173Z,35.80
2022-12-17T23:59:48.668Z,34.53
